createdAt,value
2018-02-14T00:01:13.100Z,50.23
2018-02-14T00:03:41.724Z,48.37
2018-02-14T00:06:09.394Z,45.60
2018-02-14T00:08:36.897Z,46.70
2018-02-14T00:11:04.417Z,46.83
2018-02-14T00:13:31.952Z,48.90
2018-02-14T00:15:59.469Z,48.00
2018-02-14T00:18:26.997Z,49.83
2018-02-14T00:20:54.534Z,47.00
2018-02-14T00:23:22.815Z,47.10
2018-02-14T00:25:50.334Z,47.53
2018-02-14T00:28:17.905Z,47.80
2018-02-14T00:30:45.413Z,46.60
2018-02-14T00:33:12.916Z,46.00
2018-02-14T00:35:40.440Z,46.60
2018-02-14T00:38:07.961Z,48.20
2018-02-14T00:40:36.253Z,47.30
2018-02-14T00:43:03.824Z,45.63
2018-02-14T00:45:32.106Z,46.93
2018-02-14T00:48:00.416Z,47.77
2018-02-14T00:50:27.953Z,48.73
2018-02-14T00:52:56.227Z,46.13
2018-02-14T00:55:23.735Z,44.40
2018-02-14T00:57:51.270Z,46.10
2018-02-14T01:00:18.781Z,47.60
2018-02-14T01:02:46.324Z,46.20
2018-02-14T01:05:13.863Z,43.57
2018-02-14T01:07:41.379Z,45.93
2018-02-14T01:10:08.892Z,43.47
2018-02-14T01:12:36.438Z,44.50
2018-02-14T01:15:04.730Z,43.67
2018-02-14T01:17:33.036Z,42.57
2018-02-14T01:20:06.288Z,41.13
2018-02-14T01:22:33.920Z,44.03
2018-02-14T01:25:01.425Z,41.20
2018-02-14T01:27:29.699Z,41.23
2018-02-14T01:29:58.023Z,42.93
2018-02-14T01:32:25.544Z,41.57
2018-02-14T01:34:53.850Z,40.97
2018-02-14T01:37:21.391Z,42.70
2018-02-14T01:39:49.670Z,42.27
2018-02-14T01:42:18.052Z,41.30
2018-02-14T01:44:46.320Z,42.90
2018-02-14T01:47:13.836Z,44.40
2018-02-14T01:49:41.376Z,44.97
2018-02-14T01:52:08.885Z,44.03
2018-02-14T01:54:36.396Z,43.30
2018-02-14T01:57:04.686Z,47.53
2018-02-14T01:59:32.212Z,43.37
2018-02-14T02:01:59.723Z,46.60
2018-02-14T02:04:27.279Z,48.23
2018-02-14T02:06:54.790Z,46.67
2018-02-14T02:09:22.308Z,45.93
2018-02-14T02:11:49.846Z,44.80
2018-02-14T02:14:18.121Z,45.17
2018-02-14T02:16:45.619Z,45.30
2018-02-14T02:19:13.145Z,40.87
2018-02-14T02:21:40.659Z,42.47
2018-02-14T02:24:08.159Z,40.63
2018-02-14T02:26:35.699Z,41.83
2018-02-14T02:29:03.246Z,40.23
2018-02-14T02:31:30.756Z,40.70
2018-02-14T02:33:58.296Z,40.83
2018-02-14T02:36:25.815Z,39.27
2018-02-14T02:38:53.320Z,41.83
2018-02-14T02:41:20.853Z,45.60
2018-02-14T02:43:48.365Z,42.10
2018-02-14T02:46:15.867Z,43.10
2018-02-14T02:48:43.400Z,42.17
2018-02-14T02:51:10.900Z,41.37
2018-02-14T02:53:38.409Z,40.60
2018-02-14T02:56:06.048Z,40.73
2018-02-14T02:58:33.552Z,43.00
2018-02-14T03:01:01.064Z,40.87
2018-02-14T03:03:28.704Z,40.00
2018-02-14T03:05:56.980Z,37.87
2018-02-14T03:08:25.254Z,38.83
2018-02-14T03:10:53.561Z,35.63
2018-02-14T03:13:21.074Z,36.93
2018-02-14T03:15:48.582Z,35.47
2018-02-14T03:18:16.112Z,38.93
2018-02-14T03:20:43.621Z,36.53
2018-02-14T03:23:11.123Z,36.57
2018-02-14T03:25:38.653Z,36.33
2018-02-14T03:28:06.169Z,34.27
2018-02-14T03:30:34.445Z,35.13
2018-02-14T03:33:01.993Z,35.83
2018-02-14T03:35:29.511Z,34.57
2018-02-14T03:37:57.340Z,34.07
2018-02-14T03:40:24.959Z,32.07
2018-02-14T03:42:52.475Z,35.20
2018-02-14T03:45:20.768Z,34.00
2018-02-14T03:47:49.065Z,35.17
2018-02-14T03:50:16.577Z,37.23
2018-02-14T03:52:44.082Z,37.67
2018-02-14T03:55:11.620Z,40.47
2018-02-14T03:57:39.136Z,40.90
2018-02-14T04:00:06.648Z,41.87
2018-02-14T04:02:35.053Z,40.90
2018-02-14T04:05:02.568Z,41.53
2018-02-14T04:07:30.089Z,40.73
2018-02-14T04:09:57.626Z,41.60
2018-02-14T04:12:25.904Z,42.70
2018-02-14T04:14:54.189Z,43.17
2018-02-14T04:17:22.480Z,42.57
2018-02-14T04:19:50.760Z,40.50
2018-02-14T04:22:19.040Z,42.73
2018-02-14T04:24:47.320Z,43.63
2018-02-14T04:27:15.611Z,41.87
2018-02-14T04:29:43.120Z,41.37
2018-02-14T04:32:10.630Z,41.37
2018-02-14T04:34:38.162Z,44.53
2018-02-14T04:37:05.672Z,42.07
2018-02-14T04:39:33.184Z,42.60
2018-02-14T04:42:00.732Z,44.30
2018-02-14T04:44:28.253Z,42.17
2018-02-14T04:46:55.772Z,40.90
2018-02-14T04:49:23.300Z,40.73
2018-02-14T04:51:50.812Z,41.07
2018-02-14T04:54:18.328Z,43.20
2018-02-14T04:56:45.966Z,40.57
2018-02-14T04:59:13.487Z,41.37
2018-02-14T05:01:40.992Z,43.27
2018-02-14T05:04:08.537Z,38.93
2018-02-14T05:06:36.815Z,41.23
2018-02-14T05:09:05.212Z,41.57
2018-02-14T05:11:33.489Z,40.23
2018-02-14T05:14:01.788Z,43.70
2018-02-14T05:16:29.296Z,40.50
2018-02-14T05:21:31.662Z,42.83
2018-02-14T05:23:59.175Z,44.03
2018-02-14T05:26:26.690Z,42.47
2018-02-14T05:28:54.237Z,41.90
2018-02-14T05:31:21.759Z,41.73
2018-02-14T05:33:49.277Z,43.73
2018-02-14T05:36:16.826Z,44.93
2018-02-14T05:38:44.337Z,44.10
2018-02-14T05:41:11.859Z,44.23
2018-02-14T05:43:39.496Z,47.67
2018-02-14T05:46:07.764Z,47.17
2018-02-14T05:48:35.267Z,48.93
2018-02-14T05:51:02.810Z,45.57
2018-02-14T05:53:30.325Z,45.60
2018-02-14T05:55:57.856Z,46.30
2018-02-14T05:58:25.430Z,47.53
2018-02-14T06:00:52.932Z,49.13
2018-02-14T06:03:20.463Z,48.13
2018-02-14T06:05:48.005Z,48.20
2018-02-14T06:08:15.538Z,51.30
2018-02-14T06:10:43.816Z,51.07
2018-02-14T06:13:12.116Z,50.53
2018-02-14T06:15:39.639Z,51.03
2018-02-14T06:18:07.155Z,50.27
2018-02-14T06:20:34.750Z,50.37
2018-02-14T06:23:02.252Z,51.37
2018-02-14T06:25:30.533Z,52.53
2018-02-14T06:27:58.943Z,51.77
2018-02-14T06:30:26.470Z,55.57
2018-02-14T06:32:54.000Z,55.10
2018-02-14T06:35:22.388Z,57.37
2018-02-14T06:37:49.910Z,53.07
2018-02-14T06:40:17.437Z,54.37
2018-02-14T06:42:44.994Z,55.47
2018-02-14T06:45:12.518Z,58.13
2018-02-14T06:47:40.046Z,55.07
2018-02-14T06:50:07.606Z,55.47
2018-02-14T06:52:35.895Z,54.27
2018-02-14T06:55:04.173Z,55.03
2018-02-14T06:57:32.500Z,52.63
2018-02-14T07:00:00.029Z,52.90
2018-02-14T07:02:27.551Z,52.23
2018-02-14T07:04:55.087Z,53.43
2018-02-14T07:07:22.600Z,57.03
2018-02-14T07:09:50.884Z,52.63
2018-02-14T07:12:19.178Z,52.07
2018-02-14T07:14:46.692Z,55.13
2018-02-14T07:17:14.210Z,53.67
2018-02-14T07:19:41.746Z,49.90
2018-02-14T07:22:10.025Z,52.43
2018-02-14T07:24:37.549Z,52.13
2018-02-14T07:27:05.081Z,52.97
2018-02-14T07:29:32.597Z,48.50
2018-02-14T07:32:00.114Z,48.07
2018-02-14T07:34:27.642Z,45.80
2018-02-14T07:36:55.148Z,49.40
2018-02-14T07:39:22.662Z,47.67
2018-02-14T07:41:50.201Z,48.63
2018-02-14T07:44:17.733Z,47.97
2018-02-14T07:46:45.257Z,49.57
2018-02-14T07:49:13.574Z,48.60
2018-02-14T07:51:41.089Z,47.23
2018-02-14T07:54:08.603Z,48.50
2018-02-14T07:56:36.264Z,49.00
2018-02-14T07:59:03.818Z,47.13
2018-02-14T08:01:31.374Z,45.27
2018-02-14T08:03:59.751Z,45.93
2018-02-14T08:06:27.314Z,46.50
2018-02-14T08:08:55.686Z,43.17
2018-02-14T08:11:23.225Z,43.70
2018-02-14T08:13:50.736Z,44.57
2018-02-14T08:16:18.264Z,46.30
2018-02-14T08:18:45.825Z,46.30
2018-02-14T08:21:13.348Z,43.30
2018-02-14T08:23:40.862Z,46.03
2018-02-14T08:26:08.424Z,47.23
2018-02-14T08:28:35.931Z,46.10
2018-02-14T08:31:03.447Z,46.00
2018-02-14T08:33:30.998Z,45.40
2018-02-14T08:35:58.536Z,44.67
2018-02-14T08:38:26.044Z,44.83
2018-02-14T08:40:53.590Z,42.87
2018-02-14T08:43:21.108Z,39.63
2018-02-14T08:45:48.613Z,41.03
2018-02-14T08:48:16.152Z,41.57
2018-02-14T08:50:43.664Z,42.27
2018-02-14T08:53:11.955Z,40.43
2018-02-14T08:55:40.290Z,41.00
2018-02-14T08:58:07.835Z,43.53
2018-02-14T09:00:35.391Z,42.27
2018-02-14T09:03:03.039Z,41.87
2018-02-14T09:05:30.563Z,42.03
2018-02-14T09:07:58.075Z,41.17
2018-02-14T09:10:25.622Z,44.20
2018-02-14T09:12:53.911Z,44.87
2018-02-14T09:15:21.434Z,42.77
2018-02-14T09:17:48.969Z,46.93
2018-02-14T09:20:16.478Z,45.33
2018-02-14T09:22:43.997Z,44.57
2018-02-14T09:25:11.671Z,41.07
2018-02-14T09:27:39.223Z,42.27
2018-02-14T09:30:06.754Z,40.80
2018-02-14T09:32:35.041Z,45.63
2018-02-14T09:35:02.567Z,49.40
2018-02-14T09:37:30.099Z,41.37
2018-02-14T09:39:58.415Z,45.97
2018-02-14T09:42:25.941Z,49.60
2018-02-14T09:44:53.470Z,46.97
2018-02-14T09:47:21.051Z,50.60
2018-02-14T09:49:48.562Z,48.53
2018-02-14T09:52:16.081Z,50.73
2018-02-14T09:54:43.630Z,47.70
2018-02-14T09:57:11.138Z,41.73
2018-02-14T09:59:38.679Z,46.40
2018-02-14T10:02:06.221Z,44.93
2018-02-14T10:04:33.734Z,44.80
2018-02-14T10:07:01.260Z,45.23
2018-02-14T10:09:28.816Z,48.20
2018-02-14T10:11:56.371Z,48.20
2018-02-14T10:14:23.900Z,37.50
2018-02-14T10:16:51.451Z,40.90
2018-02-14T10:19:18.988Z,40.77
2018-02-14T10:21:46.540Z,38.77
2018-02-14T10:24:14.100Z,30.73
2018-02-14T10:26:41.623Z,31.67
2018-02-14T10:29:09.142Z,31.50
2018-02-14T10:31:36.689Z,32.17
2018-02-14T10:34:04.209Z,32.33
2018-02-14T10:36:31.738Z,33.83
2018-02-14T10:38:59.276Z,36.93
2018-02-14T10:41:26.788Z,34.53
2018-02-14T10:43:54.304Z,35.50
2018-02-14T10:46:21.844Z,30.93
2018-02-14T10:48:50.113Z,31.33
2018-02-14T10:51:17.670Z,28.20
2018-02-14T10:53:45.242Z,28.23
2018-02-14T10:56:13.514Z,27.37
2018-02-14T10:58:41.064Z,24.97
2018-02-14T11:01:08.667Z,27.20
2018-02-14T11:03:41.189Z,24.93
2018-02-14T11:06:12.729Z,29.37
2018-02-14T11:08:40.258Z,26.40
2018-02-14T11:11:08.583Z,26.87
2018-02-14T11:13:36.236Z,29.40
2018-02-14T11:16:03.763Z,29.57
2018-02-14T11:18:32.047Z,30.73
2018-02-14T11:21:00.385Z,30.17
2018-02-14T11:26:01.843Z,29.07
2018-02-14T11:28:29.379Z,30.30
2018-02-14T11:30:56.924Z,27.60
2018-02-14T11:33:25.247Z,28.73
2018-02-14T11:35:52.765Z,28.60
2018-02-14T11:38:21.061Z,28.47
2018-02-14T11:40:49.465Z,26.27
2018-02-14T11:43:17.019Z,28.53
2018-02-14T11:45:44.559Z,26.07
2018-02-14T11:48:12.862Z,25.90
2018-02-14T11:50:40.415Z,27.43
2018-02-14T11:53:07.958Z,26.17
2018-02-14T11:55:35.621Z,26.20
2018-02-14T11:58:03.138Z,24.93
2018-02-14T12:00:30.655Z,24.60
2018-02-14T12:02:58.982Z,23.93
2018-02-14T12:05:26.551Z,24.40
2018-02-14T12:07:54.094Z,21.90
2018-02-14T12:10:21.663Z,23.03
2018-02-14T12:12:49.199Z,24.20
2018-02-14T12:15:17.482Z,24.97
2018-02-14T12:17:45.834Z,23.73
2018-02-14T12:20:13.401Z,24.00
2018-02-14T12:22:40.941Z,19.77
2018-02-14T12:25:08.646Z,19.47
2018-02-14T12:27:37.036Z,19.10
2018-02-14T12:30:05.359Z,21.30
2018-02-14T12:32:32.898Z,20.27
2018-02-14T12:35:00.415Z,19.83
2018-02-14T12:37:27.993Z,21.87
2018-02-14T12:39:55.521Z,21.80
2018-02-14T12:42:23.087Z,23.20
2018-02-14T12:44:50.655Z,22.90
2018-02-14T12:47:18.183Z,23.77
2018-02-14T12:49:45.731Z,21.23
2018-02-14T12:52:14.050Z,20.37
2018-02-14T12:54:41.577Z,21.30
2018-02-14T12:57:09.856Z,22.07
2018-02-14T12:59:38.164Z,22.03
2018-02-14T13:02:05.663Z,23.00
2018-02-14T13:04:33.187Z,24.43
2018-02-14T13:07:00.747Z,20.20
2018-02-14T13:09:28.258Z,23.00
2018-02-14T13:11:55.802Z,25.07
2018-02-14T13:14:23.424Z,24.60
2018-02-14T13:16:51.773Z,25.40
2018-02-14T13:19:19.298Z,28.80
2018-02-14T13:21:46.844Z,27.93
2018-02-14T13:24:14.358Z,31.37
2018-02-14T13:26:41.955Z,31.23
2018-02-14T13:29:10.260Z,33.37
2018-02-14T13:31:37.776Z,31.97
2018-02-14T13:34:05.303Z,31.07
2018-02-14T13:36:32.865Z,27.90
2018-02-14T13:39:00.384Z,28.00
2018-02-14T13:41:28.683Z,26.53
2018-02-14T13:43:56.226Z,28.13
2018-02-14T13:46:24.504Z,28.67
2018-02-14T13:48:52.899Z,28.77
2018-02-14T13:51:21.216Z,27.83
2018-02-14T13:53:48.790Z,27.50
2018-02-14T13:56:17.124Z,27.60
2018-02-14T13:58:45.404Z,28.63
2018-02-14T14:01:13.798Z,28.57
2018-02-14T14:03:42.125Z,29.37
2018-02-14T14:06:09.641Z,29.33
2018-02-14T14:08:37.958Z,31.03
2018-02-14T14:11:05.507Z,31.63
2018-02-14T14:13:33.050Z,26.50
2018-02-14T14:16:00.604Z,28.03
2018-02-14T14:18:28.935Z,28.17
2018-02-14T14:20:56.692Z,27.80
2018-02-14T14:23:24.363Z,28.33
2018-02-14T14:25:51.939Z,30.07
2018-02-14T14:28:19.536Z,29.63
2018-02-14T14:30:48.023Z,31.43
2018-02-14T14:33:15.634Z,31.53
2018-02-14T14:35:43.244Z,31.73
2018-02-14T14:38:10.796Z,32.70
2018-02-14T14:40:38.376Z,32.23
2018-02-14T14:43:05.929Z,31.97
2018-02-14T14:45:33.505Z,32.10
2018-02-14T14:48:01.850Z,33.30
2018-02-14T14:50:29.518Z,31.43
2018-02-14T14:52:57.131Z,33.30
2018-02-14T14:55:24.718Z,35.73
2018-02-14T14:57:52.244Z,38.20
2018-02-14T15:00:20.981Z,38.83
2018-02-14T15:02:48.634Z,39.23
2018-02-14T15:05:16.213Z,40.33
2018-02-14T15:07:44.292Z,41.40
2018-02-14T15:10:12.035Z,35.97
2018-02-14T15:12:39.686Z,33.83
2018-02-14T15:15:08.173Z,35.53
2018-02-14T15:17:36.484Z,36.30
2018-02-14T15:20:04.014Z,37.73
2018-02-14T15:22:32.314Z,37.10
2018-02-14T15:25:00.632Z,38.03
2018-02-14T15:27:28.167Z,37.30
2018-02-14T15:29:55.757Z,36.83
2018-02-14T15:32:23.308Z,38.57
2018-02-14T15:34:51.653Z,38.03
2018-02-14T15:37:19.980Z,38.47
2018-02-14T15:39:47.543Z,37.90
2018-02-14T15:42:15.198Z,38.60
2018-02-14T15:44:42.856Z,36.53
2018-02-14T15:47:10.638Z,37.17
2018-02-14T15:49:38.196Z,37.03
2018-02-14T15:52:05.906Z,40.23
2018-02-14T15:54:33.515Z,41.00
2018-02-14T15:57:01.020Z,44.17
2018-02-14T15:59:28.580Z,40.17
2018-02-14T16:01:56.122Z,42.43
2018-02-14T16:04:23.667Z,43.70
2018-02-14T16:06:51.338Z,42.60
2018-02-14T16:09:18.888Z,44.43
2018-02-14T16:11:47.228Z,37.30
2018-02-14T16:14:14.828Z,37.60
2018-02-14T16:16:42.437Z,41.37
2018-02-14T16:19:10.133Z,41.63
2018-02-14T16:21:37.705Z,39.70
2018-02-14T16:24:05.375Z,41.87
2018-02-14T16:26:32.940Z,41.73
2018-02-14T16:29:00.509Z,41.07
2018-02-14T16:31:28.838Z,38.37
2018-02-14T16:33:57.211Z,37.60
2018-02-14T16:36:24.760Z,40.40
2018-02-14T16:38:52.367Z,39.57
2018-02-14T16:41:19.968Z,37.60
2018-02-14T16:43:48.309Z,37.60
2018-02-14T16:46:15.919Z,39.97
2018-02-14T16:48:44.271Z,44.00
2018-02-14T16:51:12.012Z,40.03
2018-02-14T16:53:39.665Z,39.63
2018-02-14T16:56:07.283Z,39.17
2018-02-14T16:58:34.969Z,36.80
2018-02-14T17:01:03.372Z,39.63
2018-02-14T17:03:30.992Z,36.73
2018-02-14T17:05:58.553Z,38.40
2018-02-14T17:08:27.096Z,39.97
2018-02-14T17:10:54.775Z,40.00
2018-02-14T17:13:22.378Z,39.07
2018-02-14T17:15:49.990Z,38.43
2018-02-14T17:18:18.965Z,42.90
2018-02-14T17:20:46.984Z,40.87
2018-02-14T17:23:15.278Z,39.57
2018-02-14T17:25:43.326Z,34.20
2018-02-14T17:28:11.102Z,36.63
2018-02-14T17:30:39.076Z,38.57
2018-02-14T17:33:07.610Z,38.57
2018-02-14T17:35:35.752Z,36.43
2018-02-14T17:38:03.429Z,39.80
2018-02-14T17:40:31.792Z,38.30
2018-02-14T17:42:59.368Z,40.93
2018-02-14T17:45:27.119Z,39.77
2018-02-14T17:47:55.936Z,41.90
2018-02-14T17:50:23.583Z,40.87
2018-02-14T17:52:51.745Z,45.93
2018-02-14T17:55:19.348Z,41.40
2018-02-14T17:57:48.791Z,41.03
2018-02-14T18:00:16.501Z,40.27
2018-02-14T18:02:46.309Z,42.07
2018-02-14T18:05:14.240Z,42.73
2018-02-14T18:07:43.701Z,40.27
2018-02-14T18:10:13.638Z,40.60
2018-02-14T18:12:42.527Z,40.53
2018-02-14T18:15:10.162Z,40.87
2018-02-14T18:17:38.889Z,41.07
2018-02-14T18:20:06.667Z,40.47
2018-02-14T18:22:35.896Z,41.97
2018-02-14T18:25:04.900Z,43.67
2018-02-14T18:27:32.962Z,43.33
2018-02-14T18:30:01.622Z,40.80
2018-02-14T18:32:31.023Z,43.77
2018-02-14T18:34:58.869Z,42.47
2018-02-14T18:37:26.616Z,41.57
2018-02-14T18:39:55.922Z,39.70
2018-02-14T18:42:24.543Z,39.50
2018-02-14T18:44:52.349Z,38.80
2018-02-14T18:47:20.060Z,38.37
2018-02-14T18:49:48.591Z,36.67
2018-02-14T18:52:16.187Z,36.20
2018-02-14T18:54:44.037Z,35.43
2018-02-14T18:57:12.406Z,38.07
2018-02-14T18:59:40.002Z,42.50
2018-02-14T19:02:07.943Z,44.23
2018-02-14T19:04:35.559Z,39.83
2018-02-14T19:07:03.409Z,38.70
2018-02-14T19:09:31.707Z,40.00
2018-02-14T19:11:59.320Z,40.40
2018-02-14T19:14:26.969Z,43.17
2018-02-14T19:16:54.523Z,41.13
2018-02-14T19:19:22.122Z,38.87
2018-02-14T19:21:50.300Z,40.00
2018-02-14T19:24:17.907Z,43.40
2018-02-14T19:26:45.526Z,42.70
2018-02-14T19:29:13.899Z,45.47
2018-02-14T19:31:41.489Z,41.33
2018-02-14T19:34:09.215Z,44.23
2018-02-14T19:36:36.885Z,39.50
2018-02-14T19:39:04.421Z,41.33
2018-02-14T19:41:31.960Z,40.73
2018-02-14T19:43:59.705Z,38.77
2018-02-14T19:46:27.390Z,41.03
2018-02-14T19:48:55.054Z,40.87
2018-02-14T19:51:22.826Z,41.47
2018-02-14T19:53:51.195Z,40.57
2018-02-14T19:56:18.772Z,42.13
2018-02-14T19:58:47.097Z,42.50
2018-02-14T20:01:14.634Z,40.67
2018-02-14T20:03:42.219Z,42.37
2018-02-14T20:06:09.915Z,46.33
2018-02-14T20:08:37.445Z,43.03
2018-02-14T20:11:05.018Z,41.73
2018-02-14T20:13:32.619Z,43.07
2018-02-14T20:16:00.161Z,42.43
2018-02-14T20:18:27.726Z,43.83
2018-02-14T20:20:55.334Z,42.30
2018-02-14T20:23:23.709Z,41.93
2018-02-14T20:25:51.242Z,42.67
2018-02-14T20:28:18.892Z,41.10
2018-02-14T20:30:46.432Z,41.50
2018-02-14T20:33:14.092Z,40.60
2018-02-14T20:35:42.447Z,41.20
2018-02-14T20:38:10.063Z,41.57
2018-02-14T20:40:37.683Z,43.10
2018-02-14T20:43:05.261Z,39.07
2018-02-14T20:45:33.579Z,42.10
2018-02-14T20:48:01.110Z,42.80
2018-02-14T20:50:29.560Z,42.27
2018-02-14T20:52:57.183Z,34.97
2018-02-14T20:55:25.410Z,37.13
2018-02-14T20:57:54.149Z,37.63
2018-02-14T21:00:22.410Z,37.47
2018-02-14T21:02:50.083Z,38.70
2018-02-14T21:05:17.679Z,36.30
2018-02-14T21:07:45.281Z,37.17
2018-02-14T21:10:12.933Z,37.40
2018-02-14T21:12:40.616Z,36.70
2018-02-14T21:15:08.641Z,37.63
2018-02-14T21:17:36.299Z,35.53
2018-02-14T21:20:04.223Z,35.60
2018-02-14T21:22:32.568Z,37.00
2018-02-14T21:25:00.169Z,34.83
2018-02-14T21:27:27.840Z,34.57
2018-02-14T21:29:55.383Z,34.23
2018-02-14T21:32:22.969Z,36.13
2018-02-14T21:34:50.542Z,35.83
2018-02-14T21:37:18.163Z,37.40
2018-02-14T21:39:45.801Z,39.57
2018-02-14T21:42:13.627Z,38.20
2018-02-14T21:44:41.192Z,37.97
2018-02-14T21:47:08.874Z,39.60
2018-02-14T21:49:36.477Z,40.03
2018-02-14T21:52:04.110Z,39.63
2018-02-14T21:54:32.572Z,44.57
2018-02-14T21:57:00.391Z,46.93
2018-02-14T21:59:28.156Z,48.53
2018-02-14T22:01:55.717Z,44.03
2018-02-14T22:04:23.296Z,40.03
2018-02-14T22:06:50.901Z,38.60
2018-02-14T22:09:18.488Z,40.00
2018-02-14T22:11:46.253Z,39.73
2018-02-14T22:14:13.785Z,38.07
2018-02-14T22:16:41.339Z,38.57
2018-02-14T22:19:08.917Z,35.27
2018-02-14T22:21:36.447Z,38.27
2018-02-14T22:24:03.994Z,36.33
2018-02-14T22:26:32.336Z,40.20
2018-02-14T22:28:59.917Z,37.77
2018-02-14T22:31:27.469Z,37.70
2018-02-14T22:33:55.113Z,37.37
2018-02-14T22:36:22.669Z,37.97
2018-02-14T22:38:50.260Z,37.87
2018-02-14T22:41:17.814Z,38.13
2018-02-14T22:43:45.391Z,40.10
2018-02-14T22:46:12.996Z,40.53
2018-02-14T22:48:40.638Z,43.40
2018-02-14T22:51:08.945Z,47.07
2018-02-14T22:53:36.518Z,46.93
2018-02-14T22:56:04.070Z,47.63
2018-02-14T22:58:31.655Z,47.20
2018-02-14T23:00:59.644Z,49.90
2018-02-14T23:03:27.277Z,43.47
2018-02-14T23:05:54.815Z,39.40
2018-02-14T23:08:23.120Z,38.30
2018-02-14T23:10:50.666Z,39.57
2018-02-14T23:13:18.955Z,35.73
2018-02-14T23:15:47.259Z,36.40
2018-02-14T23:18:14.806Z,36.13
2018-02-14T23:20:42.336Z,34.00
2018-02-14T23:23:09.864Z,32.40
2018-02-14T23:25:37.418Z,31.07
2018-02-14T23:28:04.957Z,31.20
2018-02-14T23:30:32.486Z,32.50
2018-02-14T23:33:00.050Z,29.73
2018-02-14T23:35:27.588Z,31.20
2018-02-14T23:37:55.170Z,29.77
2018-02-14T23:40:22.711Z,31.27
2018-02-14T23:42:50.236Z,32.43
2018-02-14T23:45:18.552Z,32.43
2018-02-14T23:47:46.088Z,31.87
2018-02-14T23:50:13.628Z,33.23
2018-02-14T23:52:41.931Z,31.37
2018-02-14T23:55:09.467Z,32.60
2018-02-14T23:57:36.987Z,31.40
